Time;durP1;ratioP1;P1;durP2;ratioP2;P2;SDS_P1;SDS_P2;PMS_P1;PMS_P2;Temp;Humidity;BMP_temperature;BMP_pressure;BME280_temperature;BME280_humidity;BME280_pressure;Samples;Min_cycle;Max_cycle;Signal;HPM_P1;HPM_P2
2023/02/18 00:00:10;;;;;;;9.50;7.77;;;;;;;;;;5030956;28;20860;-86
2023/02/18 00:02:37;;;;;;;9.50;7.40;;;;;;;;;;5029689;28;20249;-86
2023/02/18 00:05:04;;;;;;;9.43;7.73;;;;;;;;;;5030222;28;20227;-87
2023/02/18 00:07:35;;;;;;;9.73;8.10;;;;;;;;;;5013583;28;20254;-86
2023/02/18 00:10:03;;;;;;;9.00;7.77;;;;;;;;;;5030206;28;20650;-86
2023/02/18 00:12:31;;;;;;;8.63;7.73;;;;;;;;;;5030501;28;20243;-86
2023/02/18 00:14:58;;;;;;;9.37;8.33;;;;;;;;;;5030979;28;20629;-86
2023/02/18 00:17:26;;;;;;;9.10;8.13;;;;;;;;;;5029936;28;20276;-87
2023/02/18 00:19:53;;;;;;;9.00;8.10;;;;;;;;;;5030178;28;20301;-87
2023/02/18 00:22:20;;;;;;;9.37;8.37;;;;;;;;;;5030310;28;20196;-86
2023/02/18 00:24:49;;;;;;;9.73;7.93;;;;;;;;;;5030186;28;20630;-86
2023/02/18 00:27:17;;;;;;;9.53;8.00;;;;;;;;;;5029866;28;20232;-87
2023/02/18 00:29:44;;;;;;;8.70;7.80;;;;;;;;;;5029083;28;20257;-87
2023/02/18 00:32:11;;;;;;;10.30;8.00;;;;;;;;;;4997310;28;20280;-86
2023/02/18 00:34:38;;;;;;;9.80;8.07;;;;;;;;;;5030160;28;20220;-86
2023/02/18 00:37:06;;;;;;;10.27;8.20;;;;;;;;;;5029472;28;20197;-87
2023/02/18 00:39:33;;;;;;;8.40;7.50;;;;;;;;;;5029055;28;20806;-86
2023/02/18 00:42:02;;;;;;;8.40;7.60;;;;;;;;;;5029369;28;20288;-87
2023/02/18 00:44:30;;;;;;;7.90;7.10;;;;;;;;;;5029427;28;20295;-86
2023/02/18 00:46:57;;;;;;;8.63;7.33;;;;;;;;;;5024771;28;20246;-86
2023/02/18 00:49:24;;;;;;;8.97;7.40;;;;;;;;;;5029531;28;20285;-86
2023/02/18 00:51:51;;;;;;;9.43;7.10;;;;;;;;;;5012573;28;20344;-87
2023/02/18 00:54:19;;;;;;;8.80;6.73;;;;;;;;;;5029158;28;20684;-86
2023/02/18 00:56:46;;;;;;;11.07;7.90;;;;;;;;;;5030001;28;20224;-85
2023/02/18 00:59:15;;;;;;;11.50;8.17;;;;;;;;;;5029328;28;20224;-86
2023/02/18 01:01:42;;;;;;;11.07;7.50;;;;;;;;;;5029538;28;20684;-86
2023/02/18 01:04:10;;;;;;;8.47;7.53;;;;;;;;;;5011504;28;20303;-86
2023/02/18 01:06:37;;;;;;;9.83;7.10;;;;;;;;;;5028694;28;20201;-86
2023/02/18 01:09:04;;;;;;;9.30;7.83;;;;;;;;;;5029550;28;20224;-86
2023/02/18 01:11:32;;;;;;;10.33;7.90;;;;;;;;;;5028980;28;20224;-85
2023/02/18 01:13:59;;;;;;;9.47;7.07;;;;;;;;;;5027918;28;20288;-86
2023/02/18 01:16:28;;;;;;;8.60;7.70;;;;;;;;;;5030014;28;20786;-86
2023/02/18 01:18:55;;;;;;;8.40;7.37;;;;;;;;;;5027785;28;20204;-86
2023/02/18 01:21:22;;;;;;;8.77;7.57;;;;;;;;;;5028629;28;20253;-85
2023/02/18 01:23:49;;;;;;;7.93;7.13;;;;;;;;;;5027767;28;20196;-86
2023/02/18 01:26:16;;;;;;;8.77;7.20;;;;;;;;;;5027027;28;20617;-86
2023/02/18 01:28:44;;;;;;;10.60;7.47;;;;;;;;;;5028016;28;20196;-86
2023/02/18 01:31:13;;;;;;;8.57;7.40;;;;;;;;;;5028413;28;20319;-87
2023/02/18 01:33:42;;;;;;;9.70;7.30;;;;;;;;;;5024740;28;20193;-87
2023/02/18 01:36:10;;;;;;;9.37;7.47;;;;;;;;;;5029010;28;20235;-86
2023/02/18 01:38:38;;;;;;;8.30;7.27;;;;;;;;;;5028936;28;20300;-86
2023/02/18 01:41:06;;;;;;;8.23;7.17;;;;;;;;;;5029841;28;20559;-85
2023/02/18 01:43:33;;;;;;;8.53;7.27;;;;;;;;;;5028763;28;20669;-87
2023/02/18 01:46:04;;;;;;;7.50;6.80;;;;;;;;;;5030546;28;20204;-84
2023/02/18 01:48:33;;;;;;;7.93;6.93;;;;;;;;;;5036890;28;20211;-87
2023/02/18 01:51:04;;;;;;;9.87;7.00;;;;;;;;;;5038979;28;20232;-86
2023/02/18 01:53:33;;;;;;;8.50;6.33;;;;;;;;;;5039697;28;20200;-88
2023/02/18 01:56:04;;;;;;;10.50;6.90;;;;;;;;;;5034114;28;20223;-87
2023/02/18 01:58:32;;;;;;;8.57;6.67;;;;;;;;;;5018950;28;20246;-86
2023/02/18 02:00:59;;;;;;;7.47;6.63;;;;;;;;;;5029853;28;20204;-86
2023/02/18 02:03:26;;;;;;;9.83;7.27;;;;;;;;;;5017708;28;20919;-86
2023/02/18 02:05:53;;;;;;;9.33;6.50;;;;;;;;;;5015316;28;20236;-87
2023/02/18 02:08:22;;;;;;;7.10;6.40;;;;;;;;;;5024240;28;20700;-86
2023/02/18 02:10:57;;;;;;;8.80;6.77;;;;;;;;;;5029126;28;20315;-86
2023/02/18 02:13:31;;;;;;;8.60;6.83;;;;;;;;;;5028031;28;20282;-86
2023/02/18 02:16:03;;;;;;;8.50;6.67;;;;;;;;;;5028892;28;20249;-87
2023/02/18 02:18:36;;;;;;;6.93;6.23;;;;;;;;;;5028039;28;20225;-86
2023/02/18 02:21:15;;;;;;;7.67;6.87;;;;;;;;;;5027424;28;20275;-86
2023/02/18 02:23:55;;;;;;;7.10;6.27;;;;;;;;;;5015755;28;20230;-85
2023/02/18 02:26:40;;;;;;;8.73;6.90;;;;;;;;;;5027892;28;20292;-86
2023/02/18 02:29:31;;;;;;;8.27;6.67;;;;;;;;;;5022440;28;20245;-85
2023/02/18 02:32:13;;;;;;;9.40;7.00;;;;;;;;;;5031479;28;20236;-85
2023/02/18 02:35:01;;;;;;;7.53;6.60;;;;;;;;;;5030450;28;20249;-85
2023/02/18 02:37:34;;;;;;;7.50;6.53;;;;;;;;;;5022120;28;20764;-86
2023/02/18 02:40:14;;;;;;;10.60;7.30;;;;;;;;;;5030289;28;20296;-85
2023/02/18 02:42:46;;;;;;;10.97;6.90;;;;;;;;;;5031714;28;20600;-86
2023/02/18 02:45:18;;;;;;;10.30;7.90;;;;;;;;;;5031843;28;20204;-85
2023/02/18 02:47:50;;;;;;;10.27;8.03;;;;;;;;;;5017858;28;20616;-85
2023/02/18 02:50:18;;;;;;;9.47;7.70;;;;;;;;;;5026790;28;20762;-87
2023/02/18 02:52:51;;;;;;;8.80;7.20;;;;;;;;;;5013621;28;20201;-86
2023/02/18 02:55:18;;;;;;;8.97;7.20;;;;;;;;;;5031176;28;20287;-85
2023/02/18 02:57:47;;;;;;;9.20;7.20;;;;;;;;;;5014304;28;20291;-85
2023/02/18 03:00:15;;;;;;;8.70;7.07;;;;;;;;;;5029315;28;20236;-86
2023/02/18 03:02:49;;;;;;;8.57;6.83;;;;;;;;;;5021433;28;20271;-86
2023/02/18 03:05:21;;;;;;;8.47;7.00;;;;;;;;;;5014581;28;20301;-86
2023/02/18 03:07:56;;;;;;;8.17;7.20;;;;;;;;;;5025405;28;20292;-86
2023/02/18 03:10:31;;;;;;;9.70;7.10;;;;;;;;;;5030922;28;20220;-85
2023/02/18 03:13:02;;;;;;;7.80;7.00;;;;;;;;;;5020015;28;20238;-86
2023/02/18 03:15:34;;;;;;;7.77;6.87;;;;;;;;;;5018987;28;20205;-86
2023/02/18 03:18:04;;;;;;;8.23;6.97;;;;;;;;;;5019379;28;20838;-87
2023/02/18 03:20:36;;;;;;;8.70;6.70;;;;;;;;;;5011122;28;20282;-86
2023/02/18 03:23:05;;;;;;;9.77;7.50;;;;;;;;;;5011403;28;20642;-86
2023/02/18 03:25:32;;;;;;;7.67;6.87;;;;;;;;;;5012674;28;20325;-86
2023/02/18 03:28:03;;;;;;;8.33;6.70;;;;;;;;;;5030640;28;20247;-87
2023/02/18 03:30:33;;;;;;;8.50;6.73;;;;;;;;;;5030043;28;20207;-86
2023/02/18 03:33:03;;;;;;;8.27;7.27;;;;;;;;;;5030660;28;20626;-86
2023/02/18 03:35:30;;;;;;;9.37;6.80;;;;;;;;;;5030598;28;20291;-86
2023/02/18 03:37:59;;;;;;;9.30;7.33;;;;;;;;;;5030202;28;20287;-86
2023/02/18 03:40:29;;;;;;;8.57;6.43;;;;;;;;;;5030696;28;20193;-86
2023/02/18 03:42:57;;;;;;;7.77;6.20;;;;;;;;;;5031301;28;20204;-86
2023/02/18 03:45:25;;;;;;;7.53;6.23;;;;;;;;;;5030322;28;20228;-86
2023/02/18 03:47:52;;;;;;;6.83;6.13;;;;;;;;;;5030074;28;20240;-86
2023/02/18 03:50:19;;;;;;;8.07;5.77;;;;;;;;;;5031214;28;20288;-84
2023/02/18 03:52:47;;;;;;;8.47;6.17;;;;;;;;;;5108205;27;20304;-86
2023/02/18 03:55:14;;;;;;;7.17;5.53;;;;;;;;;;5134303;27;20224;-86
2023/02/18 03:57:43;;;;;;;8.90;6.20;;;;;;;;;;5135078;27;20239;-86
2023/02/18 04:00:11;;;;;;;8.13;6.07;;;;;;;;;;5127447;27;20665;-86
2023/02/18 04:02:38;;;;;;;7.90;6.17;;;;;;;;;;5030401;28;20253;-86
2023/02/18 04:05:06;;;;;;;9.97;6.10;;;;;;;;;;5030537;28;20285;-86
2023/02/18 04:07:34;;;;;;;7.20;5.53;;;;;;;;;;5030188;28;20642;-86
2023/02/18 04:10:01;;;;;;;8.17;4.90;;;;;;;;;;5030488;28;20280;-85
2023/02/18 04:12:28;;;;;;;5.97;5.37;;;;;;;;;;5020600;28;20324;-86
2023/02/18 04:14:57;;;;;;;7.07;5.50;;;;;;;;;;5019422;28;20736;-85
2023/02/18 04:17:24;;;;;;;7.07;5.50;;;;;;;;;;5030442;28;20284;-85
2023/02/18 04:19:51;;;;;;;9.13;5.50;;;;;;;;;;5027887;28;20728;-86
2023/02/18 04:22:19;;;;;;;7.13;5.60;;;;;;;;;;5009129;28;20695;-86
2023/02/18 04:24:46;;;;;;;7.97;5.33;;;;;;;;;;5026104;28;20239;-86
2023/02/18 04:27:13;;;;;;;7.37;5.77;;;;;;;;;;5029094;28;20197;-86
2023/02/18 04:29:40;;;;;;;6.77;4.83;;;;;;;;;;5029531;28;20284;-86
2023/02/18 04:32:09;;;;;;;6.57;5.13;;;;;;;;;;5028811;28;20263;-86
2023/02/18 04:34:37;;;;;;;6.70;5.00;;;;;;;;;;5029268;28;20617;-86
2023/02/18 04:37:04;;;;;;;6.07;4.60;;;;;;;;;;5015850;28;20277;-85
2023/02/18 04:39:31;;;;;;;10.23;4.93;;;;;;;;;;5021584;28;20283;-86
2023/02/18 04:41:58;;;;;;;6.87;4.83;;;;;;;;;;5028969;28;20235;-86
2023/02/18 04:44:26;;;;;;;5.53;4.30;;;;;;;;;;5029262;28;20283;-86
2023/02/18 04:46:53;;;;;;;6.63;3.90;;;;;;;;;;5030119;28;20299;-86
2023/02/18 04:49:22;;;;;;;7.03;4.20;;;;;;;;;;5027462;28;20796;-85
2023/02/18 04:51:49;;;;;;;6.00;3.77;;;;;;;;;;5028598;28;20267;-86
2023/02/18 04:54:16;;;;;;;5.60;3.73;;;;;;;;;;5029582;28;20291;-86
2023/02/18 04:56:43;;;;;;;6.70;4.00;;;;;;;;;;5029143;28;20236;-86
2023/02/18 04:59:11;;;;;;;5.57;3.50;;;;;;;;;;5027093;28;20287;-86
2023/02/18 05:01:38;;;;;;;7.40;3.80;;;;;;;;;;5014596;28;20204;-86
2023/02/18 05:04:05;;;;;;;6.47;3.20;;;;;;;;;;5024691;28;20644;-86
2023/02/18 05:06:34;;;;;;;6.07;3.07;;;;;;;;;;5029205;28;20291;-85
2023/02/18 05:09:01;;;;;;;7.00;3.13;;;;;;;;;;5012634;28;20232;-87
2023/02/18 05:11:29;;;;;;;4.97;2.67;;;;;;;;;;5029030;28;20255;-86
2023/02/18 05:13:56;;;;;;;6.77;2.60;;;;;;;;;;5029226;28;20692;-87
2023/02/18 05:16:23;;;;;;;4.33;2.53;;;;;;;;;;5028527;28;20260;-85
2023/02/18 05:18:50;;;;;;;3.97;2.40;;;;;;;;;;5014002;28;20197;-85
2023/02/18 05:21:17;;;;;;;6.03;2.30;;;;;;;;;;5026478;28;20220;-85
2023/02/18 05:23:46;;;;;;;5.10;2.20;;;;;;;;;;5027207;28;20235;-85
2023/02/18 05:26:13;;;;;;;3.97;2.30;;;;;;;;;;5028686;28;20284;-86
2023/02/18 05:28:40;;;;;;;7.47;2.50;;;;;;;;;;5028128;28;20232;-86
2023/02/18 05:31:07;;;;;;;4.97;2.50;;;;;;;;;;5028454;28;20240;-86
2023/02/18 05:33:35;;;;;;;7.60;2.47;;;;;;;;;;5028478;28;20239;-86
2023/02/18 05:36:02;;;;;;;5.43;2.10;;;;;;;;;;5024364;28;20240;-85
2023/02/18 05:38:29;;;;;;;4.57;2.23;;;;;;;;;;5016820;28;20240;-85
2023/02/18 05:40:58;;;;;;;5.57;2.20;;;;;;;;;;5028072;28;20236;-86
2023/02/18 05:43:25;;;;;;;5.60;2.40;;;;;;;;;;5028732;28;20295;-85
2023/02/18 05:45:52;;;;;;;8.17;3.17;;;;;;;;;;5028411;28;20299;-85
2023/02/18 05:48:20;;;;;;;5.50;2.97;;;;;;;;;;5027121;28;20291;-86
2023/02/18 05:50:47;;;;;;;5.53;2.77;;;;;;;;;;5028223;28;20228;-86
2023/02/18 05:53:14;;;;;;;7.97;2.90;;;;;;;;;;5022711;28;20285;-84
2023/02/18 05:55:42;;;;;;;5.40;3.10;;;;;;;;;;5013268;28;20231;-85
2023/02/18 05:58:12;;;;;;;6.47;2.90;;;;;;;;;;5014309;28;20239;-85
2023/02/18 06:00:39;;;;;;;4.90;3.33;;;;;;;;;;5031615;28;20207;-85
2023/02/18 06:03:07;;;;;;;5.63;3.30;;;;;;;;;;5029227;28;20287;-86
2023/02/18 06:05:34;;;;;;;5.27;3.10;;;;;;;;;;5030394;28;20242;-85
2023/02/18 06:08:01;;;;;;;6.13;3.40;;;;;;;;;;5022239;28;20837;-85
2023/02/18 06:10:29;;;;;;;6.03;3.70;;;;;;;;;;5030915;28;20285;-84
2023/02/18 06:12:56;;;;;;;5.53;3.60;;;;;;;;;;5016686;28;20585;-85
2023/02/18 06:15:25;;;;;;;7.33;3.60;;;;;;;;;;5012785;28;20236;-85
2023/02/18 06:17:52;;;;;;;6.10;3.97;;;;;;;;;;5030780;28;20196;-86
2023/02/18 06:20:19;;;;;;;5.80;3.93;;;;;;;;;;5031109;28;20316;-85
2023/02/18 06:22:47;;;;;;;4.70;3.80;;;;;;;;;;5031295;28;20228;-87
2023/02/18 06:25:14;;;;;;;5.63;4.13;;;;;;;;;;5031578;28;20232;-86
2023/02/18 06:27:41;;;;;;;8.33;4.27;;;;;;;;;;5031647;28;20291;-86
2023/02/18 06:30:09;;;;;;;4.70;3.77;;;;;;;;;;5031506;28;20625;-86
2023/02/18 06:32:38;;;;;;;4.97;3.67;;;;;;;;;;5030485;28;20244;-85
2023/02/18 06:35:05;;;;;;;6.17;3.73;;;;;;;;;;5030191;28;20681;-86
2023/02/18 06:37:33;;;;;;;6.33;4.10;;;;;;;;;;5030738;28;20253;-85
2023/02/18 06:40:00;;;;;;;6.40;3.83;;;;;;;;;;5029791;28;20240;-85
2023/02/18 06:42:27;;;;;;;6.53;3.93;;;;;;;;;;5030997;28;20287;-85
2023/02/18 06:44:55;;;;;;;6.27;4.13;;;;;;;;;;5031420;28;20239;-85
2023/02/18 06:47:22;;;;;;;5.17;3.63;;;;;;;;;;5031400;28;20713;-85
2023/02/18 06:49:51;;;;;;;4.80;3.70;;;;;;;;;;5030496;28;20287;-86
2023/02/18 06:52:18;;;;;;;4.97;3.57;;;;;;;;;;5030393;28;20266;-86
2023/02/18 06:54:45;;;;;;;7.20;4.50;;;;;;;;;;5013717;28;20293;-86
2023/02/18 06:57:12;;;;;;;5.33;4.00;;;;;;;;;;5011747;28;20198;-86
2023/02/18 06:59:40;;;;;;;5.77;3.53;;;;;;;;;;5020452;28;20221;-85
2023/02/18 07:02:07;;;;;;;5.33;3.03;;;;;;;;;;5021605;28;20240;-86
2023/02/18 07:04:35;;;;;;;4.67;3.40;;;;;;;;;;5029980;28;20291;-86
2023/02/18 07:07:04;;;;;;;6.50;3.30;;;;;;;;;;5030117;28;20232;-86
2023/02/18 07:09:31;;;;;;;6.07;3.80;;;;;;;;;;5030882;28;20200;-86
2023/02/18 07:11:59;;;;;;;6.13;3.57;;;;;;;;;;5018711;28;20241;-86
2023/02/18 07:14:27;;;;;;;7.50;3.90;;;;;;;;;;5011334;28;20212;-86
2023/02/18 07:16:54;;;;;;;6.60;3.70;;;;;;;;;;5014188;28;20254;-86
2023/02/18 07:19:21;;;;;;;8.23;4.77;;;;;;;;;;5030349;28;20275;-85
2023/02/18 07:21:49;;;;;;;7.50;4.20;;;;;;;;;;5030296;28;20235;-85
2023/02/18 07:24:17;;;;;;;8.17;4.27;;;;;;;;;;5029938;27;20244;-85
2023/02/18 07:26:45;;;;;;;5.27;3.63;;;;;;;;;;5027310;28;20235;-86
2023/02/18 07:29:12;;;;;;;6.40;4.13;;;;;;;;;;5015780;28;20224;-86
2023/02/18 07:31:39;;;;;;;6.03;4.17;;;;;;;;;;5022294;28;20232;-86
2023/02/18 07:34:06;;;;;;;8.63;4.20;;;;;;;;;;5010840;28;20316;-86
2023/02/18 07:36:34;;;;;;;7.50;3.70;;;;;;;;;;5017833;28;20232;-86
2023/02/18 07:39:01;;;;;;;6.37;3.70;;;;;;;;;;5029127;28;20296;-87
2023/02/18 07:41:30;;;;;;;5.67;4.20;;;;;;;;;;5031199;28;20231;-86
2023/02/18 07:43:58;;;;;;;5.40;4.10;;;;;;;;;;5030286;28;20292;-86
2023/02/18 07:46:25;;;;;;;7.03;4.20;;;;;;;;;;5029657;28;20291;-86
2023/02/18 07:48:52;;;;;;;5.40;4.00;;;;;;;;;;5019236;28;20266;-85
2023/02/18 07:51:19;;;;;;;8.20;4.53;;;;;;;;;;5020285;28;20300;-86
2023/02/18 07:53:47;;;;;;;5.83;3.97;;;;;;;;;;5017308;28;20229;-85
2023/02/18 07:56:14;;;;;;;5.93;4.07;;;;;;;;;;5024872;28;20231;-84
2023/02/18 07:58:43;;;;;;;7.03;5.03;;;;;;;;;;5030316;28;20223;-85
2023/02/18 08:01:11;;;;;;;5.53;4.00;;;;;;;;;;5029511;28;20232;-85
2023/02/18 08:03:38;;;;;;;8.07;4.00;;;;;;;;;;5030135;28;20223;-85
2023/02/18 08:06:06;;;;;;;5.00;3.73;;;;;;;;;;5029543;28;20245;-86
2023/02/18 08:08:34;;;;;;;5.00;3.63;;;;;;;;;;5030030;28;20220;-85
2023/02/18 08:11:02;;;;;;;4.63;3.53;;;;;;;;;;5030029;28;20262;-85
2023/02/18 08:13:30;;;;;;;7.43;3.80;;;;;;;;;;5010351;28;20683;-85
2023/02/18 08:15:59;;;;;;;7.83;4.63;;;;;;;;;;5009931;28;20301;-85
2023/02/18 08:18:27;;;;;;;6.30;4.67;;;;;;;;;;5013887;28;20291;-85
2023/02/18 08:20:54;;;;;;;5.57;3.60;;;;;;;;;;5009487;28;20323;-86
2023/02/18 08:23:24;;;;;;;5.00;3.80;;;;;;;;;;5016982;28;20208;-86
2023/02/18 08:25:52;;;;;;;5.50;3.10;;;;;;;;;;5028100;28;20200;-85
2023/02/18 08:28:19;;;;;;;4.87;3.30;;;;;;;;;;5030005;28;20284;-86
2023/02/18 08:30:47;;;;;;;5.40;3.37;;;;;;;;;;5029532;28;20284;-85
2023/02/18 08:33:16;;;;;;;7.97;3.23;;;;;;;;;;5029334;28;20315;-86
2023/02/18 08:35:44;;;;;;;5.37;3.00;;;;;;;;;;5011511;28;20332;-85
2023/02/18 08:38:11;;;;;;;4.70;2.60;;;;;;;;;;5024231;28;20289;-86
2023/02/18 08:40:39;;;;;;;5.40;3.03;;;;;;;;;;5029599;28;20283;-85
2023/02/18 08:43:06;;;;;;;5.10;3.30;;;;;;;;;;5029352;28;20261;-85
2023/02/18 08:45:34;;;;;;;4.43;3.20;;;;;;;;;;5029037;28;20287;-85
2023/02/18 08:48:01;;;;;;;7.90;4.30;;;;;;;;;;5029035;28;20228;-86
2023/02/18 08:50:30;;;;;;;7.43;3.37;;;;;;;;;;5018026;28;20220;-85
2023/02/18 08:52:59;;;;;;;5.20;3.67;;;;;;;;;;5025429;28;20316;-85
2023/02/18 08:55:26;;;;;;;6.17;3.50;;;;;;;;;;5022561;28;20250;-85
2023/02/18 08:57:54;;;;;;;6.93;2.90;;;;;;;;;;5027841;28;20204;-85
2023/02/18 09:00:21;;;;;;;4.97;3.40;;;;;;;;;;5011344;28;20292;-87
2023/02/18 09:02:48;;;;;;;5.50;3.10;;;;;;;;;;5024950;28;20295;-86
2023/02/18 09:05:16;;;;;;;5.93;3.23;;;;;;;;;;5028277;28;20280;-85
2023/02/18 09:07:45;;;;;;;5.20;2.80;;;;;;;;;;5028706;28;20224;-85
2023/02/18 09:10:12;;;;;;;7.97;3.60;;;;;;;;;;5029268;28;20224;-85
2023/02/18 09:12:39;;;;;;;3.63;3.00;;;;;;;;;;5019038;27;20240;-90
2023/02/18 09:15:07;;;;;;;6.03;3.00;;;;;;;;;;5014768;28;20287;-90
2023/02/18 09:17:34;;;;;;;5.27;2.80;;;;;;;;;;5012516;28;20249;-90
2023/02/18 09:20:02;;;;;;;5.63;3.33;;;;;;;;;;5018588;28;20304;-88
2023/02/18 09:22:31;;;;;;;4.33;2.90;;;;;;;;;;5021894;28;20912;-91
2023/02/18 09:25:00;;;;;;;4.83;3.00;;;;;;;;;;5010458;28;20204;-92
2023/02/18 09:27:28;;;;;;;3.77;2.10;;;;;;;;;;5020518;28;20296;-90
2023/02/18 09:29:55;;;;;;;3.57;2.47;;;;;;;;;;5023533;28;20228;-90
2023/02/18 09:32:22;;;;;;;4.97;3.03;;;;;;;;;;5018767;28;20261;-90
2023/02/18 09:34:50;;;;;;;4.50;2.97;;;;;;;;;;5014566;28;20315;-91
2023/02/18 09:37:17;;;;;;;4.77;2.87;;;;;;;;;;4996687;28;20679;-91
2023/02/18 09:39:44;;;;;;;5.40;2.80;;;;;;;;;;5022593;28;20225;-91
2023/02/18 09:42:15;;;;;;;5.37;3.07;;;;;;;;;;5014370;28;20284;-90
2023/02/18 09:44:44;;;;;;;7.10;3.80;;;;;;;;;;5021134;28;20197;-89
2023/02/18 09:47:14;;;;;;;7.20;3.17;;;;;;;;;;5017330;28;20842;-91
2023/02/18 09:49:42;;;;;;;4.37;2.93;;;;;;;;;;5019901;28;20289;-88
2023/02/18 09:52:13;;;;;;;3.97;2.93;;;;;;;;;;5011927;28;20788;-90
2023/02/18 09:54:41;;;;;;;3.37;2.63;;;;;;;;;;5014016;28;20776;-89
2023/02/18 10:18:20;;;;;;;3.33;2.00;;;;;;;;;;5076783;22;20759;-84
2023/02/18 10:20:48;;;;;;;3.97;2.20;;;;;;;;;;5071042;28;20265;-82
2023/02/18 10:23:16;;;;;;;3.77;2.40;;;;;;;;;;5077007;28;20653;-90
2023/02/18 10:25:48;;;;;;;6.33;2.80;;;;;;;;;;5070603;28;20688;-86
2023/02/18 10:28:16;;;;;;;5.20;2.90;;;;;;;;;;5086723;28;20202;-85
2023/02/18 10:30:44;;;;;;;8.33;4.07;;;;;;;;;;5083347;28;20319;-85
2023/02/18 10:33:32;;;;;;;6.07;3.87;;;;;;;;;;5080683;28;20305;-86
2023/02/18 10:36:05;;;;;;;7.03;4.40;;;;;;;;;;5091471;28;20207;-91
2023/02/18 10:38:37;;;;;;;4.50;3.10;;;;;;;;;;5090717;28;20259;-88
2023/02/18 10:41:09;;;;;;;2.80;2.43;;;;;;;;;;5094580;28;20206;-87
2023/02/18 10:43:39;;;;;;;3.33;2.30;;;;;;;;;;5086564;28;20214;-87
2023/02/18 10:46:12;;;;;;;3.80;2.77;;;;;;;;;;5086940;28;20207;-88
2023/02/18 10:48:54;;;;;;;6.90;3.43;;;;;;;;;;5088176;28;21346;-89
2023/02/18 10:51:24;;;;;;;3.63;2.43;;;;;;;;;;5090965;28;20206;-84
2023/02/18 10:53:52;;;;;;;2.73;2.00;;;;;;;;;;5088660;28;20226;-89
2023/02/18 10:56:36;;;;;;;2.03;1.50;;;;;;;;;;5094030;28;20229;-87
2023/02/18 10:59:07;;;;;;;2.77;1.77;;;;;;;;;;5091365;28;20199;-83
2023/02/18 11:01:34;;;;;;;4.13;1.73;;;;;;;;;;5085008;28;20210;-86
2023/02/18 11:04:06;;;;;;;4.60;1.50;;;;;;;;;;5083366;28;20241;-85
2023/02/18 11:06:39;;;;;;;2.33;1.70;;;;;;;;;;5083677;28;20667;-85
2023/02/18 11:09:08;;;;;;;3.73;1.50;;;;;;;;;;5083034;28;20664;-85
2023/02/18 11:11:38;;;;;;;2.83;1.53;;;;;;;;;;5082903;28;20202;-87
2023/02/18 11:14:06;;;;;;;2.23;1.40;;;;;;;;;;5086259;28;20413;-87
2023/02/18 11:16:38;;;;;;;2.30;1.43;;;;;;;;;;5090128;28;20231;-84
2023/02/18 11:19:05;;;;;;;2.93;1.73;;;;;;;;;;5091830;28;20194;-87
2023/02/18 11:21:35;;;;;;;4.53;2.00;;;;;;;;;;5090284;28;20248;-86
2023/02/18 11:24:09;;;;;;;2.97;1.70;;;;;;;;;;5089257;28;20269;-87
2023/02/18 11:26:37;;;;;;;4.33;1.40;;;;;;;;;;5084731;28;20226;-88
2023/02/18 11:29:07;;;;;;;2.40;1.00;;;;;;;;;;5090232;28;20245;-87
2023/02/18 11:31:42;;;;;;;4.40;1.90;;;;;;;;;;5076004;28;20256;-84
2023/02/18 11:34:15;;;;;;;3.70;1.83;;;;;;;;;;5074913;28;20222;-84
2023/02/18 11:36:42;;;;;;;4.13;1.40;;;;;;;;;;5086825;28;20195;-83
2023/02/18 11:39:18;;;;;;;2.77;1.47;;;;;;;;;;5079740;28;20721;-83
2023/02/18 11:41:47;;;;;;;2.80;1.40;;;;;;;;;;5084652;28;20237;-83
2023/02/18 11:44:20;;;;;;;3.10;1.50;;;;;;;;;;5080830;28;20273;-84
2023/02/18 11:46:57;;;;;;;2.97;1.47;;;;;;;;;;5077839;28;20206;-84
2023/02/18 11:49:24;;;;;;;5.10;2.03;;;;;;;;;;5087018;28;20225;-84
2023/02/18 11:51:52;;;;;;;2.93;1.70;;;;;;;;;;5090723;28;20238;-85
2023/02/18 11:54:25;;;;;;;3.67;1.20;;;;;;;;;;5089635;28;20226;-86
2023/02/18 11:56:56;;;;;;;3.23;1.80;;;;;;;;;;5090219;28;20284;-85
2023/02/18 11:59:24;;;;;;;3.13;1.23;;;;;;;;;;5073284;28;20230;-87
2023/02/18 12:01:52;;;;;;;4.10;1.63;;;;;;;;;;5073346;28;20207;-86
2023/02/18 12:04:20;;;;;;;3.07;1.67;;;;;;;;;;5073132;28;20203;-85
2023/02/18 12:06:51;;;;;;;2.37;1.33;;;;;;;;;;5075829;28;20203;-85
2023/02/18 12:09:21;;;;;;;3.67;1.20;;;;;;;;;;5090367;28;20255;-86
2023/02/18 12:11:51;;;;;;;3.93;1.53;;;;;;;;;;5092319;28;20222;-85
2023/02/18 12:14:20;;;;;;;4.67;1.50;;;;;;;;;;5091915;28;20222;-84
2023/02/18 12:16:55;;;;;;;3.73;1.50;;;;;;;;;;5092503;28;20238;-85
2023/02/18 12:19:35;;;;;;;2.87;1.63;;;;;;;;;;5082697;28;20202;-86
2023/02/18 12:22:04;;;;;;;2.43;1.33;;;;;;;;;;5072126;28;20199;-85
2023/02/18 12:24:48;;;;;;;2.27;1.20;;;;;;;;;;5081140;28;20202;-85
2023/02/18 12:27:20;;;;;;;3.73;1.30;;;;;;;;;;5091438;28;20243;-85
2023/02/18 12:29:58;;;;;;;2.30;1.30;;;;;;;;;;5090460;28;20614;-85
2023/02/18 12:32:33;;;;;;;4.43;1.10;;;;;;;;;;5077181;28;20230;-83
2023/02/18 12:35:12;;;;;;;3.07;1.20;;;;;;;;;;5085790;28;20714;-84
2023/02/18 12:37:47;;;;;;;3.03;1.40;;;;;;;;;;5090692;28;20733;-83
2023/02/18 12:40:24;;;;;;;2.83;1.40;;;;;;;;;;5092238;28;20670;-85
2023/02/18 12:43:01;;;;;;;4.57;1.40;;;;;;;;;;5093385;28;20259;-90
2023/02/18 12:45:36;;;;;;;3.80;1.27;;;;;;;;;;5091581;28;20206;-84
2023/02/18 12:48:13;;;;;;;4.43;1.90;;;;;;;;;;5079097;28;20233;-89
2023/02/18 12:50:54;;;;;;;5.23;1.50;;;;;;;;;;5091160;28;20190;-84
2023/02/18 12:53:27;;;;;;;3.77;1.53;;;;;;;;;;5092165;28;20236;-85
2023/02/18 12:56:02;;;;;;;4.73;1.70;;;;;;;;;;5091299;28;20202;-87
2023/02/18 12:58:38;;;;;;;4.13;1.80;;;;;;;;;;5090056;28;20721;-85
2023/02/18 13:01:11;;;;;;;4.03;1.60;;;;;;;;;;5089182;28;20202;-86
2023/02/18 13:03:54;;;;;;;3.50;1.70;;;;;;;;;;5089403;28;20206;-86
2023/02/18 13:06:54;;;;;;;5.37;2.27;;;;;;;;;;5090500;28;20256;-83
2023/02/18 13:09:29;;;;;;;3.53;2.10;;;;;;;;;;4991534;28;20206;-85
2023/02/18 13:12:00;;;;;;;5.23;2.00;;;;;;;;;;4996516;28;20238;-84
2023/02/18 13:14:30;;;;;;;4.27;1.60;;;;;;;;;;5010422;28;20217;-89
2023/02/18 13:17:01;;;;;;;3.27;1.60;;;;;;;;;;5008211;28;20304;-84
2023/02/18 13:19:33;;;;;;;4.50;1.83;;;;;;;;;;5009690;28;20200;-89
2023/02/18 13:22:14;;;;;;;5.13;2.20;;;;;;;;;;5010156;28;20217;-89
2023/02/18 13:24:54;;;;;;;3.33;1.63;;;;;;;;;;5005295;28;20301;-90
2023/02/18 13:27:25;;;;;;;5.03;2.00;;;;;;;;;;4994903;28;20219;-91
2023/02/18 13:30:25;;;;;;;3.83;1.80;;;;;;;;;;4994710;28;20201;-90
2023/02/18 13:33:24;;;;;;;2.70;1.83;;;;;;;;;;5011106;28;20630;-90
2023/02/18 13:35:56;;;;;;;4.07;1.77;;;;;;;;;;5011683;28;20225;-93
2023/02/18 13:38:43;;;;;;;3.47;1.70;;;;;;;;;;5011644;28;20343;-92
2023/02/18 13:41:17;;;;;;;3.83;1.83;;;;;;;;;;5070332;28;20205;-92
2023/02/18 13:43:46;;;;;;;4.90;1.80;;;;;;;;;;5084038;28;20190;-92
2023/02/18 13:46:17;;;;;;;2.90;1.70;;;;;;;;;;5092815;28;20194;-92
2023/02/18 13:48:50;;;;;;;3.57;1.70;;;;;;;;;;5075146;28;20195;-91
2023/02/18 13:54:05;;;;;;;6.67;2.23;;;;;;;;;;5082395;28;20275;-91
2023/02/18 13:59:19;;;;;;;7.77;2.30;;;;;;;;;;5051727;28;20258;-90
2023/02/18 14:01:49;;;;;;;5.70;2.20;;;;;;;;;;5079765;28;20194;-91
2023/02/18 14:04:51;;;;;;;5.87;2.30;;;;;;;;;;5090485;28;20877;-91
2023/02/18 14:10:42;;;;;;;4.27;2.43;;;;;;;;;;5076704;28;20240;-90
2023/02/18 14:13:25;;;;;;;4.37;2.10;;;;;;;;;;5067945;28;20195;-91
2023/02/18 14:16:02;;;;;;;5.00;2.20;;;;;;;;;;5084299;28;20218;-91
2023/02/18 14:18:55;;;;;;;4.47;2.03;;;;;;;;;;5096743;28;20232;-91
2023/02/18 14:21:25;;;;;;;4.93;1.80;;;;;;;;;;5093615;28;20210;-92
2023/02/18 14:24:00;;;;;;;4.63;1.83;;;;;;;;;;5094942;28;20198;-92
2023/02/18 14:26:34;;;;;;;3.53;1.80;;;;;;;;;;5093115;28;20205;-92
2023/02/18 14:29:03;;;;;;;4.97;2.37;;;;;;;;;;5096472;28;20207;-90
2023/02/18 14:31:36;;;;;;;5.23;2.07;;;;;;;;;;5093339;28;20206;-88
2023/02/18 14:34:18;;;;;;;2.77;2.20;;;;;;;;;;5085042;28;20195;-92
2023/02/18 14:36:49;;;;;;;8.10;2.20;;;;;;;;;;5092197;28;20202;-88
2023/02/18 14:39:27;;;;;;;5.83;2.40;;;;;;;;;;5096169;28;20203;-89
2023/02/18 14:41:58;;;;;;;4.83;2.37;;;;;;;;;;5096656;28;20198;-90
2023/02/18 14:44:41;;;;;;;5.13;2.30;;;;;;;;;;5092557;28;20256;-91
2023/02/18 14:47:30;;;;;;;5.53;2.23;;;;;;;;;;5076267;28;20238;-91
2023/02/18 14:50:02;;;;;;;5.60;2.20;;;;;;;;;;5076380;28;20195;-90
2023/02/18 14:52:31;;;;;;;5.03;2.10;;;;;;;;;;5077501;28;20282;-90
2023/02/18 14:55:00;;;;;;;6.63;2.00;;;;;;;;;;5078130;28;20215;-91
2023/02/18 14:57:31;;;;;;;4.87;3.67;;;;;;;;;;5085893;28;20199;-90
2023/02/18 14:59:59;;;;;;;5.40;2.43;;;;;;;;;;5075744;28;20203;-91
2023/02/18 15:02:29;;;;;;;6.50;2.40;;;;;;;;;;5076410;28;20195;-91
2023/02/18 15:05:06;;;;;;;4.23;2.20;;;;;;;;;;5087679;28;20210;-90
2023/02/18 15:07:34;;;;;;;4.73;2.37;;;;;;;;;;5095520;28;20226;-82
2023/02/18 15:10:01;;;;;;;4.17;2.30;;;;;;;;;;5090682;28;20194;-80
2023/02/18 15:12:29;;;;;;;5.03;2.30;;;;;;;;;;5085484;28;20605;-82
2023/02/18 15:14:58;;;;;;;4.80;2.00;;;;;;;;;;5091827;28;20317;-81
2023/02/18 15:17:26;;;;;;;5.50;2.40;;;;;;;;;;5088692;28;20223;-80
2023/02/18 15:19:54;;;;;;;4.47;2.63;;;;;;;;;;5084050;28;20629;-80
2023/02/18 15:22:22;;;;;;;4.30;2.83;;;;;;;;;;5092565;28;20277;-81
2023/02/18 15:24:51;;;;;;;4.10;2.30;;;;;;;;;;5084441;28;20222;-80
2023/02/18 15:27:20;;;;;;;5.63;2.57;;;;;;;;;;5072623;28;20260;-82
2023/02/18 15:29:49;;;;;;;5.30;3.00;;;;;;;;;;5077890;28;20837;-80